This is the latest recevied weather packets stored in our database for station/object ANJALA. If no packets are shown the sender has not sent any weather packets the latest 10 day(s).
| Time | Temp. | Humidity | Pressure | Rain* | Wind** | Luminosity | Snow |
|---|---|---|---|---|---|---|---|
| 1777583213 | 7.22° C | 88% | - | 0 mm | - | - | - |
| 1777582012 | 7.78° C | 84% | - | 0 mm | - | - | - |
| 1777580813 | 8.33° C | 82% | - | 0 mm | - | - | - |
| 1777579612 | 8.33° C | 82% | - | 0 mm | - | - | - |
| 1777578412 | 8.89° C | 81% | - | 0 mm | - | - | - |
| 1777577212 | 9.44° C | 77% | - | 0 mm | - | - | - |
| 1777576012 | 9.44° C | 77% | - | 0 mm | - | - | - |
| 1777574812 | 9.44° C | 76% | - | 0 mm | - | - | - |
| 1777573612 | 9.44° C | 75% | - | 0 mm | - | - | - |
| 1777572412 | 9.44° C | 73% | - | 0 mm | - | - | - |
| 1777571212 | 8.89° C | 76% | - | 0 mm | - | - | - |
| 1777570012 | 10° C | 72% | - | 0 mm | - | - | - |
| 1777568812 | 11.11° C | 66% | - | 0 mm | - | - | - |
| 1777567612 | 12.22° C | 65% | - | 0 mm | - | - | - |
| 1777566412 | 12.78° C | 59% | - | 0 mm | - | - | - |
| 1777565211 | 12.78° C | 57% | - | 0 mm | - | - | - |
| 1777564012 | 12.78° C | 58% | - | 0 mm | - | - | - |
| 1777562811 | 13.33° C | 56% | - | 0 mm | - | - | - |
| 1777561611 | 12.78° C | 56% | - | 0 mm | - | - | - |
| 1777560412 | 12.78° C | 57% | - | 0 mm | - | - | - |
| 1777559211 | 12.78° C | 57% | - | 0 mm | - | - | - |
| 1777558011 | 12.78° C | 59% | - | 0 mm | - | - | - |
| 1777556811 | 12.78° C | 61% | - | 0 mm | - | - | - |
| 1777555611 | 11.67° C | 61% | - | 0 mm | - | - | - |
| 1777554411 | 11.67° C | 61% | - | 0 mm | - | - | - |
* Rain latest hour (hover to see other rain measurements)
** Current wind speed in m/s (hover to see current wind gust speed)